sensor_id;sensor_type;location;lat;lon;timestamp;pressure;altitude;pressure_sealevel;temperature;humidity
21359;BME280;13506;50.852;20.632;2024-03-06T00:02:05;98373.25;;;7.81;91.71
21359;BME280;13506;50.852;20.632;2024-03-06T00:04:33;98374.19;;;7.80;92.02
21359;BME280;13506;50.852;20.632;2024-03-06T00:07:02;98372.47;;;7.79;91.67
21359;BME280;13506;50.852;20.632;2024-03-06T00:09:30;98360.47;;;7.78;91.68
21359;BME280;13506;50.852;20.632;2024-03-06T00:11:58;98369.06;;;7.78;91.82
21359;BME280;13506;50.852;20.632;2024-03-06T00:14:26;98366.53;;;7.77;92.11
21359;BME280;13506;50.852;20.632;2024-03-06T00:16:56;98366.47;;;7.78;92.23
21359;BME280;13506;50.852;20.632;2024-03-06T00:19:24;98364.94;;;7.74;92.81
21359;BME280;13506;50.852;20.632;2024-03-06T00:21:52;98363.25;;;7.73;92.82
21359;BME280;13506;50.852;20.632;2024-03-06T00:24:20;98359.97;;;7.69;93.02
21359;BME280;13506;50.852;20.632;2024-03-06T00:26:49;98365.16;;;7.69;93.16
21359;BME280;13506;50.852;20.632;2024-03-06T00:29:17;98365.38;;;7.65;93.92
21359;BME280;13506;50.852;20.632;2024-03-06T00:31:46;98367.88;;;7.66;92.87
21359;BME280;13506;50.852;20.632;2024-03-06T00:34:15;98374.88;;;7.64;93.52
21359;BME280;13506;50.852;20.632;2024-03-06T00:36:44;98375.72;;;7.65;93.26
21359;BME280;13506;50.852;20.632;2024-03-06T00:39:12;98378.44;;;7.62;93.57
21359;BME280;13506;50.852;20.632;2024-03-06T00:41:41;98365.44;;;7.63;95.25
21359;BME280;13506;50.852;20.632;2024-03-06T00:44:09;98374.88;;;7.64;94.42
21359;BME280;13506;50.852;20.632;2024-03-06T00:46:37;98363.88;;;7.59;94.29
21359;BME280;13506;50.852;20.632;2024-03-06T00:49:06;98372.63;;;7.57;94.58
21359;BME280;13506;50.852;20.632;2024-03-06T00:51:35;98376.06;;;7.57;94.29
21359;BME280;13506;50.852;20.632;2024-03-06T00:54:04;98371.25;;;7.49;95.17
21359;BME280;13506;50.852;20.632;2024-03-06T00:56:32;98364.81;;;7.39;94.92
21359;BME280;13506;50.852;20.632;2024-03-06T00:59:00;98370.66;;;7.43;94.94
21359;BME280;13506;50.852;20.632;2024-03-06T01:01:28;98370.66;;;7.43;95.86
21359;BME280;13506;50.852;20.632;2024-03-06T01:03:56;98375.41;;;7.33;95.83
21359;BME280;13506;50.852;20.632;2024-03-06T01:06:24;98372.56;;;7.39;95.70
21359;BME280;13506;50.852;20.632;2024-03-06T01:08:53;98369.13;;;7.39;95.76
21359;BME280;13506;50.852;20.632;2024-03-06T01:11:23;98375.00;;;7.42;95.35
21359;BME280;13506;50.852;20.632;2024-03-06T01:13:51;98366.34;;;7.43;95.46
21359;BME280;13506;50.852;20.632;2024-03-06T01:16:19;98375.72;;;7.46;95.00
21359;BME280;13506;50.852;20.632;2024-03-06T01:18:47;98377.66;;;7.41;95.50
21359;BME280;13506;50.852;20.632;2024-03-06T01:21:15;98382.97;;;7.38;95.51
21359;BME280;13506;50.852;20.632;2024-03-06T01:23:43;98382.19;;;7.36;95.92
21359;BME280;13506;50.852;20.632;2024-03-06T01:26:12;98377.84;;;7.36;96.00
21359;BME280;13506;50.852;20.632;2024-03-06T01:28:40;98385.56;;;7.38;96.83
21359;BME280;13506;50.852;20.632;2024-03-06T01:31:08;98384.63;;;7.39;96.65
21359;BME280;13506;50.852;20.632;2024-03-06T01:33:36;98379.34;;;7.42;96.20
21359;BME280;13506;50.852;20.632;2024-03-06T01:36:04;98378.56;;;7.40;95.66
21359;BME280;13506;50.852;20.632;2024-03-06T01:38:33;98386.28;;;7.41;96.12
21359;BME280;13506;50.852;20.632;2024-03-06T01:41:01;98377.75;;;7.39;96.80
21359;BME280;13506;50.852;20.632;2024-03-06T01:43:38;98382.97;;;7.38;95.50
21359;BME280;13506;50.852;20.632;2024-03-06T01:46:06;98388.22;;;7.36;95.66
21359;BME280;13506;50.852;20.632;2024-03-06T01:48:35;98385.97;;;7.28;95.68
21359;BME280;13506;50.852;20.632;2024-03-06T01:51:03;98374.84;;;7.26;96.09
21359;BME280;13506;50.852;20.632;2024-03-06T01:53:33;98368.97;;;7.23;96.56
21359;BME280;13506;50.852;20.632;2024-03-06T01:56:02;98376.66;;;7.24;95.59
21359;BME280;13506;50.852;20.632;2024-03-06T01:58:34;98373.22;;;7.24;96.23
21359;BME280;13506;50.852;20.632;2024-03-06T02:01:02;98378.50;;;7.22;96.32
21359;BME280;13506;50.852;20.632;2024-03-06T02:03:32;98381.06;;;7.22;96.83
21359;BME280;13506;50.852;20.632;2024-03-06T02:06:01;98371.63;;;7.21;96.63
21359;BME280;13506;50.852;20.632;2024-03-06T02:08:30;98364.63;;;7.23;96.60
21359;BME280;13506;50.852;20.632;2024-03-06T02:10:58;98368.75;;;7.27;96.30
21359;BME280;13506;50.852;20.632;2024-03-06T02:13:29;98357.44;;;7.30;96.20
21359;BME280;13506;50.852;20.632;2024-03-06T02:15:58;98367.72;;;7.31;95.98
21359;BME280;13506;50.852;20.632;2024-03-06T02:18:27;98365.84;;;7.35;96.58
21359;BME280;13506;50.852;20.632;2024-03-06T02:20:56;98373.16;;;7.25;97.22
21359;BME280;13506;50.852;20.632;2024-03-06T02:23:24;98372.78;;;7.34;97.01
21359;BME280;13506;50.852;20.632;2024-03-06T02:25:52;98371.03;;;7.35;96.29
21359;BME280;13506;50.852;20.632;2024-03-06T02:28:20;98374.22;;;7.40;95.48
21359;BME280;13506;50.852;20.632;2024-03-06T02:30:50;98368.22;;;7.40;96.21
21359;BME280;13506;50.852;20.632;2024-03-06T02:33:19;98371.84;;;7.36;95.40
21359;BME280;13506;50.852;20.632;2024-03-06T02:35:47;98372.13;;;7.29;95.92
21359;BME280;13506;50.852;20.632;2024-03-06T02:38:16;98372.06;;;7.31;97.05
21359;BME280;13506;50.852;20.632;2024-03-06T02:40:44;98369.53;;;7.29;96.39
21359;BME280;13506;50.852;20.632;2024-03-06T02:43:13;98363.09;;;7.19;96.62
21359;BME280;13506;50.852;20.632;2024-03-06T02:45:42;98368.91;;;7.24;96.71
21359;BME280;13506;50.852;20.632;2024-03-06T02:48:10;98363.84;;;7.21;97.01
21359;BME280;13506;50.852;20.632;2024-03-06T02:50:38;98370.84;;;7.19;97.62
21359;BME280;13506;50.852;20.632;2024-03-06T02:53:06;98369.69;;;7.26;98.35
21359;BME280;13506;50.852;20.632;2024-03-06T02:55:35;98363.66;;;7.26;97.00
21359;BME280;13506;50.852;20.632;2024-03-06T02:58:04;98372.13;;;7.29;97.36
21359;BME280;13506;50.852;20.632;2024-03-06T03:00:32;98371.09;;;7.33;96.91
21359;BME280;13506;50.852;20.632;2024-03-06T03:03:00;98364.34;;;7.29;97.67
21359;BME280;13506;50.852;20.632;2024-03-06T03:05:28;98369.22;;;7.37;96.56
21359;BME280;13506;50.852;20.632;2024-03-06T03:07:56;98365.84;;;7.35;97.53
21359;BME280;13506;50.852;20.632;2024-03-06T03:10:24;98363.38;;;7.32;97.22
21359;BME280;13506;50.852;20.632;2024-03-06T03:12:54;98376.25;;;7.33;97.52
21359;BME280;13506;50.852;20.632;2024-03-06T03:15:22;98371.91;;;7.34;97.79
21359;BME280;13506;50.852;20.632;2024-03-06T03:17:50;98366.81;;;7.32;97.72
21359;BME280;13506;50.852;20.632;2024-03-06T03:20:18;98373.59;;;7.35;97.01
21359;BME280;13506;50.852;20.632;2024-03-06T03:22:46;98370.31;;;7.31;97.61
21359;BME280;13506;50.852;20.632;2024-03-06T03:25:14;98373.47;;;7.38;97.78
21359;BME280;13506;50.852;20.632;2024-03-06T03:27:43;98375.16;;;7.39;96.89
21359;BME280;13506;50.852;20.632;2024-03-06T03:30:12;98371.69;;;7.39;96.81
21359;BME280;13506;50.852;20.632;2024-03-06T03:32:42;98376.13;;;7.37;96.13
21359;BME280;13506;50.852;20.632;2024-03-06T03:35:10;98375.28;;;7.36;97.34
21359;BME280;13506;50.852;20.632;2024-03-06T03:37:38;98375.97;;;7.40;96.68
21359;BME280;13506;50.852;20.632;2024-03-06T03:40:07;98372.84;;;7.33;96.71
21359;BME280;13506;50.852;20.632;2024-03-06T03:42:38;98375.47;;;7.31;97.80
21359;BME280;13506;50.852;20.632;2024-03-06T03:45:06;98379.09;;;7.27;97.23
21359;BME280;13506;50.852;20.632;2024-03-06T03:47:37;98379.38;;;7.21;98.47
21359;BME280;13506;50.852;20.632;2024-03-06T03:50:05;98392.19;;;7.24;97.82
21359;BME280;13506;50.852;20.632;2024-03-06T03:52:35;98377.72;;;7.20;98.39
21359;BME280;13506;50.852;20.632;2024-03-06T03:55:08;98377.66;;;7.22;97.59
21359;BME280;13506;50.852;20.632;2024-03-06T03:57:36;98381.97;;;7.21;97.56
21359;BME280;13506;50.852;20.632;2024-03-06T04:00:04;98390.19;;;7.10;99.58
21359;BME280;13506;50.852;20.632;2024-03-06T04:02:40;98386.16;;;7.05;99.38
21359;BME280;13506;50.852;20.632;2024-03-06T04:05:08;98380.88;;;7.06;99.21
21359;BME280;13506;50.852;20.632;2024-03-06T04:07:37;98382.38;;;6.91;100.00
21359;BME280;13506;50.852;20.632;2024-03-06T04:10:06;98376.84;;;6.80;99.90
21359;BME280;13506;50.852;20.632;2024-03-06T04:12:34;98385.13;;;6.88;100.00
21359;BME280;13506;50.852;20.632;2024-03-06T04:15:02;98378.97;;;6.91;100.00
21359;BME280;13506;50.852;20.632;2024-03-06T04:17:30;98382.66;;;6.85;100.00
21359;BME280;13506;50.852;20.632;2024-03-06T04:19:59;98379.94;;;6.88;100.00
21359;BME280;13506;50.852;20.632;2024-03-06T04:22:28;98379.81;;;6.91;100.00
21359;BME280;13506;50.852;20.632;2024-03-06T04:24:56;98384.97;;;6.91;100.00
21359;BME280;13506;50.852;20.632;2024-03-06T04:27:25;98371.41;;;6.86;100.00
21359;BME280;13506;50.852;20.632;2024-03-06T04:29:53;98379.84;;;6.90;100.00
21359;BME280;13506;50.852;20.632;2024-03-06T04:32:21;98373.22;;;6.84;100.00
21359;BME280;13506;50.852;20.632;2024-03-06T04:34:49;98372.97;;;6.90;100.00
21359;BME280;13506;50.852;20.632;2024-03-06T04:37:18;98377.22;;;6.91;100.00
21359;BME280;13506;50.852;20.632;2024-03-06T04:39:46;98390.28;;;6.88;100.00
21359;BME280;13506;50.852;20.632;2024-03-06T04:42:15;98376.38;;;6.91;100.00
21359;BME280;13506;50.852;20.632;2024-03-06T04:44:43;98383.41;;;6.87;100.00
21359;BME280;13506;50.852;20.632;2024-03-06T04:47:11;98383.56;;;6.84;100.00
21359;BME280;13506;50.852;20.632;2024-03-06T04:49:38;98378.75;;;6.75;100.00
21359;BME280;13506;50.852;20.632;2024-03-06T04:52:06;98381.88;;;6.63;100.00
21359;BME280;13506;50.852;20.632;2024-03-06T04:54:37;98384.38;;;6.64;100.00
21359;BME280;13506;50.852;20.632;2024-03-06T04:57:05;98387.56;;;6.71;100.00
21359;BME280;13506;50.852;20.632;2024-03-06T04:59:33;98395.34;;;6.71;100.00
21359;BME280;13506;50.852;20.632;2024-03-06T05:02:01;98392.59;;;6.74;100.00
21359;BME280;13506;50.852;20.632;2024-03-06T05:04:29;98396.38;;;6.67;100.00
21359;BME280;13506;50.852;20.632;2024-03-06T05:06:58;98387.84;;;6.65;100.00
21359;BME280;13506;50.852;20.632;2024-03-06T05:09:25;98402.16;;;6.72;100.00
21359;BME280;13506;50.852;20.632;2024-03-06T05:11:55;98401.59;;;6.65;100.00
21359;BME280;13506;50.852;20.632;2024-03-06T05:14:23;98400.56;;;6.69;100.00
21359;BME280;13506;50.852;20.632;2024-03-06T05:16:51;98400.31;;;6.76;100.00
21359;BME280;13506;50.852;20.632;2024-03-06T05:19:19;98402.81;;;6.77;100.00
21359;BME280;13506;50.852;20.632;2024-03-06T05:21:47;98401.19;;;6.75;100.00
21359;BME280;13506;50.852;20.632;2024-03-06T05:24:15;98401.13;;;6.76;100.00
21359;BME280;13506;50.852;20.632;2024-03-06T05:26:43;98400.16;;;6.79;100.00
21359;BME280;13506;50.852;20.632;2024-03-06T05:29:12;98404.81;;;6.70;100.00
21359;BME280;13506;50.852;20.632;2024-03-06T05:31:41;98405.34;;;6.79;100.00
21359;BME280;13506;50.852;20.632;2024-03-06T05:34:08;98402.94;;;6.74;100.00
21359;BME280;13506;50.852;20.632;2024-03-06T05:36:36;98406.31;;;6.76;100.00
21359;BME280;13506;50.852;20.632;2024-03-06T05:39:04;98397.72;;;6.76;100.00
21359;BME280;13506;50.852;20.632;2024-03-06T05:41:33;98401.91;;;6.78;100.00
21359;BME280;13506;50.852;20.632;2024-03-06T05:44:01;98407.88;;;6.80;100.00
21359;BME280;13506;50.852;20.632;2024-03-06T05:46:32;98406.38;;;6.75;100.00
21359;BME280;13506;50.852;20.632;2024-03-06T05:49:00;98413.16;;;6.77;100.00
21359;BME280;13506;50.852;20.632;2024-03-06T05:51:29;98415.56;;;6.82;100.00
21359;BME280;13506;50.852;20.632;2024-03-06T05:53:57;98419.63;;;6.87;100.00
21359;BME280;13506;50.852;20.632;2024-03-06T05:56:25;98416.91;;;6.90;100.00
21359;BME280;13506;50.852;20.632;2024-03-06T05:58:53;98421.16;;;6.91;100.00
21359;BME280;13506;50.852;20.632;2024-03-06T06:01:22;98417.81;;;6.89;100.00
21359;BME280;13506;50.852;20.632;2024-03-06T06:03:51;98417.69;;;6.92;100.00
21359;BME280;13506;50.852;20.632;2024-03-06T06:06:19;98415.75;;;6.98;100.00
21359;BME280;13506;50.852;20.632;2024-03-06T06:08:47;98413.16;;;6.77;100.00
21359;BME280;13506;50.852;20.632;2024-03-06T06:11:15;98412.06;;;6.83;100.00
21359;BME280;13506;50.852;20.632;2024-03-06T06:13:43;98416.41;;;6.82;100.00
21359;BME280;13506;50.852;20.632;2024-03-06T06:16:11;98417.94;;;6.86;100.00
21359;BME280;13506;50.852;20.632;2024-03-06T06:18:41;98419.75;;;6.84;100.00
21359;BME280;13506;50.852;20.632;2024-03-06T06:21:11;98419.72;;;6.86;100.00
21359;BME280;13506;50.852;20.632;2024-03-06T06:23:38;98424.69;;;6.90;100.00
21359;BME280;13506;50.852;20.632;2024-03-06T06:26:07;98420.41;;;6.89;100.00
21359;BME280;13506;50.852;20.632;2024-03-06T06:28:37;98427.31;;;6.89;100.00
21359;BME280;13506;50.852;20.632;2024-03-06T06:31:05;98414.06;;;6.76;100.00
21359;BME280;13506;50.852;20.632;2024-03-06T06:33:33;98420.91;;;6.77;100.00
21359;BME280;13506;50.852;20.632;2024-03-06T06:36:01;98414.00;;;6.78;100.00
21359;BME280;13506;50.852;20.632;2024-03-06T06:38:31;98422.41;;;6.83;100.00
21359;BME280;13506;50.852;20.632;2024-03-06T06:40:59;98421.44;;;6.85;100.00
21359;BME280;13506;50.852;20.632;2024-03-06T06:43:27;98425.50;;;6.91;100.00
21359;BME280;13506;50.852;20.632;2024-03-06T06:45:55;98428.03;;;6.92;100.00
21359;BME280;13506;50.852;20.632;2024-03-06T06:48:23;98428.63;;;6.99;100.00
21359;BME280;13506;50.852;20.632;2024-03-06T06:50:51;98436.44;;;6.98;100.00
21359;BME280;13506;50.852;20.632;2024-03-06T06:53:19;98432.44;;;6.90;100.00
21359;BME280;13506;50.852;20.632;2024-03-06T06:55:48;98430.81;;;6.88;100.00
21359;BME280;13506;50.852;20.632;2024-03-06T06:58:17;98431.78;;;6.85;100.00
21359;BME280;13506;50.852;20.632;2024-03-06T07:00:47;98433.56;;;6.83;100.00
21359;BME280;13506;50.852;20.632;2024-03-06T07:03:16;98441.84;;;6.91;100.00
21359;BME280;13506;50.852;20.632;2024-03-06T07:05:44;98445.88;;;6.99;100.00
21359;BME280;13506;50.852;20.632;2024-03-06T07:08:11;98441.84;;;6.91;100.00
21359;BME280;13506;50.852;20.632;2024-03-06T07:10:40;98438.13;;;6.99;100.00
21359;BME280;13506;50.852;20.632;2024-03-06T07:13:09;98447.75;;;6.95;100.00
21359;BME280;13506;50.852;20.632;2024-03-06T07:15:37;98453.13;;;6.90;100.00
21359;BME280;13506;50.852;20.632;2024-03-06T07:18:06;98448.59;;;6.96;100.00
21359;BME280;13506;50.852;20.632;2024-03-06T07:20:34;98445.13;;;6.97;100.00
21359;BME280;13506;50.852;20.632;2024-03-06T07:23:02;98442.78;;;6.90;100.00
21359;BME280;13506;50.852;20.632;2024-03-06T07:25:34;98450.91;;;7.02;100.00
21359;BME280;13506;50.852;20.632;2024-03-06T07:28:02;98456.03;;;7.03;100.00
21359;BME280;13506;50.852;20.632;2024-03-06T07:30:32;98452.31;;;7.09;100.00
21359;BME280;13506;50.852;20.632;2024-03-06T07:33:01;98449.38;;;7.18;100.00
21359;BME280;13506;50.852;20.632;2024-03-06T07:35:30;98459.00;;;7.14;100.00
21359;BME280;13506;50.852;20.632;2024-03-06T07:37:57;98458.16;;;7.14;100.00
21359;BME280;13506;50.852;20.632;2024-03-06T07:40:26;98456.72;;;7.07;100.00
21359;BME280;13506;50.852;20.632;2024-03-06T07:42:54;98454.81;;;7.12;100.00
21359;BME280;13506;50.852;20.632;2024-03-06T07:45:22;98457.34;;;7.13;100.00
21359;BME280;13506;50.852;20.632;2024-03-06T07:47:52;98457.25;;;7.15;100.00
21359;BME280;13506;50.852;20.632;2024-03-06T07:50:20;98460.69;;;7.16;100.00
21359;BME280;13506;50.852;20.632;2024-03-06T07:52:48;98460.44;;;7.22;100.00
21359;BME280;13506;50.852;20.632;2024-03-06T07:55:16;98456.22;;;7.19;100.00
21359;BME280;13506;50.852;20.632;2024-03-06T07:57:48;98458.22;;;7.33;100.00
21359;BME280;13506;50.852;20.632;2024-03-06T08:00:16;98463.34;;;7.34;100.00
21359;BME280;13506;50.852;20.632;2024-03-06T08:02:46;98462.16;;;7.42;100.00
21359;BME280;13506;50.852;20.632;2024-03-06T08:05:18;98459.56;;;7.42;100.00
21359;BME280;13506;50.852;20.632;2024-03-06T08:07:47;98466.09;;;7.50;100.00
21359;BME280;13506;50.852;20.632;2024-03-06T08:10:15;98464.44;;;7.49;100.00
21359;BME280;13506;50.852;20.632;2024-03-06T08:12:46;98465.00;;;7.56;100.00
21359;BME280;13506;50.852;20.632;2024-03-06T08:15:15;98462.31;;;7.58;100.00
21359;BME280;13506;50.852;20.632;2024-03-06T08:17:43;98469.19;;;7.59;100.00
21359;BME280;13506;50.852;20.632;2024-03-06T08:20:12;98467.09;;;7.67;100.00
21359;BME280;13506;50.852;20.632;2024-03-06T08:22:42;98467.66;;;7.73;100.00
21359;BME280;13506;50.852;20.632;2024-03-06T08:25:12;98471.81;;;7.78;100.00
21359;BME280;13506;50.852;20.632;2024-03-06T08:27:41;98471.53;;;7.84;100.00
21359;BME280;13506;50.852;20.632;2024-03-06T08:30:10;98470.50;;;7.88;100.00
21359;BME280;13506;50.852;20.632;2024-03-06T08:32:39;98476.16;;;7.77;100.00
21359;BME280;13506;50.852;20.632;2024-03-06T08:35:11;98478.75;;;7.77;100.00
21359;BME280;13506;50.852;20.632;2024-03-06T08:37:42;98470.03;;;7.59;100.00
21359;BME280;13506;50.852;20.632;2024-03-06T08:40:11;98476.75;;;7.63;100.00
21359;BME280;13506;50.852;20.632;2024-03-06T08:42:41;98474.09;;;7.65;100.00
21359;BME280;13506;50.852;20.632;2024-03-06T08:45:09;98480.00;;;7.68;100.00
21359;BME280;13506;50.852;20.632;2024-03-06T08:47:37;98472.22;;;7.68;100.00
21359;BME280;13506;50.852;20.632;2024-03-06T08:50:06;98480.69;;;7.72;100.00
21359;BME280;13506;50.852;20.632;2024-03-06T08:52:35;98493.34;;;7.78;100.00
21359;BME280;13506;50.852;20.632;2024-03-06T08:55:05;98477.50;;;7.86;100.00
21359;BME280;13506;50.852;20.632;2024-03-06T08:57:34;98484.34;;;7.87;100.00
21359;BME280;13506;50.852;20.632;2024-03-06T09:00:02;98484.13;;;7.91;100.00
21359;BME280;13506;50.852;20.632;2024-03-06T09:02:30;98483.94;;;7.96;100.00
21359;BME280;13506;50.852;20.632;2024-03-06T09:04:59;98479.59;;;7.97;100.00
21359;BME280;13506;50.852;20.632;2024-03-06T09:07:27;98484.50;;;8.03;100.00
21359;BME280;13506;50.852;20.632;2024-03-06T09:09:55;98487.84;;;8.05;100.00
21359;BME280;13506;50.852;20.632;2024-03-06T09:12:25;98484.34;;;8.06;100.00
21359;BME280;13506;50.852;20.632;2024-03-06T09:14:53;98481.19;;;7.99;100.00
21359;BME280;13506;50.852;20.632;2024-03-06T09:17:21;98488.69;;;8.05;100.00
21359;BME280;13506;50.852;20.632;2024-03-06T09:19:49;98486.88;;;8.07;100.00
21359;BME280;13506;50.852;20.632;2024-03-06T09:22:17;98493.59;;;8.11;100.00
21359;BME280;13506;50.852;20.632;2024-03-06T09:24:45;98499.31;;;7.99;100.00
21359;BME280;13506;50.852;20.632;2024-03-06T09:27:15;98489.19;;;7.94;100.00
21359;BME280;13506;50.852;20.632;2024-03-06T09:29:44;98496.88;;;7.96;100.00
21359;BME280;13506;50.852;20.632;2024-03-06T09:32:13;98491.44;;;8.02;100.00
21359;BME280;13506;50.852;20.632;2024-03-06T09:34:42;98495.66;;;7.84;100.00
21359;BME280;13506;50.852;20.632;2024-03-06T09:37:11;98500.53;;;7.92;100.00
21359;BME280;13506;50.852;20.632;2024-03-06T09:39:39;98502.09;;;7.75;100.00
21359;BME280;13506;50.852;20.632;2024-03-06T09:42:08;98502.13;;;7.94;100.00
21359;BME280;13506;50.852;20.632;2024-03-06T09:44:35;98504.50;;;7.99;100.00
21359;BME280;13506;50.852;20.632;2024-03-06T09:47:07;98500.03;;;8.03;100.00
21359;BME280;13506;50.852;20.632;2024-03-06T09:49:38;98494.97;;;8.00;100.00
21359;BME280;13506;50.852;20.632;2024-03-06T09:52:07;98497.56;;;8.00;100.00
21359;BME280;13506;50.852;20.632;2024-03-06T09:54:35;98507.25;;;7.96;100.00
21359;BME280;13506;50.852;20.632;2024-03-06T09:57:04;98501.34;;;7.53;100.00
21359;BME280;13506;50.852;20.632;2024-03-06T09:59:32;98506.84;;;7.66;100.00
21359;BME280;13506;50.852;20.632;2024-03-06T10:02:01;98513.06;;;7.21;100.00
21359;BME280;13506;50.852;20.632;2024-03-06T10:04:34;98502.78;;;7.40;100.00
21359;BME280;13506;50.852;20.632;2024-03-06T10:07:03;98506.66;;;7.50;100.00
21359;BME280;13506;50.852;20.632;2024-03-06T10:09:34;98504.50;;;7.60;100.00
21359;BME280;13506;50.852;20.632;2024-03-06T10:12:03;98508.31;;;7.71;100.00
21359;BME280;13506;50.852;20.632;2024-03-06T10:14:31;98505.78;;;7.70;100.00
21359;BME280;13506;50.852;20.632;2024-03-06T10:17:00;98514.28;;;7.73;100.00
21359;BME280;13506;50.852;20.632;2024-03-06T10:19:29;98520.38;;;7.52;100.00
21359;BME280;13506;50.852;20.632;2024-03-06T10:21:59;98516.38;;;7.45;100.00
21359;BME280;13506;50.852;20.632;2024-03-06T10:24:28;98510.50;;;7.21;100.00
21359;BME280;13506;50.852;20.632;2024-03-06T10:26:57;98517.16;;;7.26;100.00
21359;BME280;13506;50.852;20.632;2024-03-06T10:29:27;98521.41;;;7.27;100.00
21359;BME280;13506;50.852;20.632;2024-03-06T10:31:57;98525.31;;;7.38;100.00
21359;BME280;13506;50.852;20.632;2024-03-06T10:34:27;98520.38;;;7.52;100.00
21359;BME280;13506;50.852;20.632;2024-03-06T10:36:58;98511.44;;;7.59;100.00
21359;BME280;13506;50.852;20.632;2024-03-06T10:39:27;98514.69;;;7.64;100.00
21359;BME280;13506;50.852;20.632;2024-03-06T10:41:58;98523.44;;;7.81;100.00
21359;BME280;13506;50.852;20.632;2024-03-06T10:44:26;98521.94;;;7.56;100.00
21359;BME280;13506;50.852;20.632;2024-03-06T10:46:58;98531.06;;;7.44;100.00
21359;BME280;13506;50.852;20.632;2024-03-06T10:49:27;98524.41;;;7.18;100.00
21359;BME280;13506;50.852;20.632;2024-03-06T10:52:00;98530.34;;;7.20;100.00
21359;BME280;13506;50.852;20.632;2024-03-06T10:54:29;98533.91;;;7.38;100.00
21359;BME280;13506;50.852;20.632;2024-03-06T10:56:59;98532.81;;;7.44;100.00
21359;BME280;13506;50.852;20.632;2024-03-06T10:59:28;98528.41;;;7.46;100.00
21359;BME280;13506;50.852;20.632;2024-03-06T11:01:56;98533.28;;;7.53;100.00
21359;BME280;13506;50.852;20.632;2024-03-06T11:04:28;98529.19;;;7.48;100.00
21359;BME280;13506;50.852;20.632;2024-03-06T11:06:59;98536.34;;;7.62;100.00
21359;BME280;13506;50.852;20.632;2024-03-06T11:09:31;98529.97;;;7.29;100.00
21359;BME280;13506;50.852;20.632;2024-03-06T11:12:01;98532.28;;;7.36;100.00
21359;BME280;13506;50.852;20.632;2024-03-06T11:14:32;98535.59;;;7.39;100.00
21359;BME280;13506;50.852;20.632;2024-03-06T11:17:05;98538.38;;;7.55;100.00
21359;BME280;13506;50.852;20.632;2024-03-06T11:20:08;98532.81;;;7.64;100.00
21359;BME280;13506;50.852;20.632;2024-03-06T11:23:03;98520.69;;;7.65;100.00
21359;BME280;13506;50.852;20.632;2024-03-06T11:26:00;98532.34;;;7.75;100.00
21359;BME280;13506;50.852;20.632;2024-03-06T11:28:31;98522.66;;;7.79;100.00
21359;BME280;13506;50.852;20.632;2024-03-06T11:31:01;98520.09;;;7.79;100.00
21359;BME280;13506;50.852;20.632;2024-03-06T11:33:35;98533.03;;;7.79;100.00
21359;BME280;13506;50.852;20.632;2024-03-06T11:36:19;98522.66;;;7.79;100.00
21359;BME280;13506;50.852;20.632;2024-03-06T11:38:51;98532.13;;;7.80;100.00
21359;BME280;13506;50.852;20.632;2024-03-06T11:41:21;98528.00;;;7.75;100.00
21359;BME280;13506;50.852;20.632;2024-03-06T11:43:51;98534.00;;;7.76;100.00
21359;BME280;13506;50.852;20.632;2024-03-06T11:46:20;98527.22;;;7.53;100.00
21359;BME280;13506;50.852;20.632;2024-03-06T11:48:53;98533.59;;;7.66;100.00
21359;BME280;13506;50.852;20.632;2024-03-06T11:51:22;98530.84;;;7.69;100.00
21359;BME280;13506;50.852;20.632;2024-03-06T11:53:52;98524.44;;;7.78;100.00
21359;BME280;13506;50.852;20.632;2024-03-06T11:56:21;98539.13;;;7.78;100.00
21359;BME280;13506;50.852;20.632;2024-03-06T11:58:49;98529.56;;;7.80;100.00
21359;BME280;13506;50.852;20.632;2024-03-06T12:01:17;98530.53;;;7.77;100.00
21359;BME280;13506;50.852;20.632;2024-03-06T12:03:47;98527.28;;;7.72;100.00
21359;BME280;13506;50.852;20.632;2024-03-06T12:06:17;98535.00;;;7.73;100.00
21359;BME280;13506;50.852;20.632;2024-03-06T12:08:46;98533.75;;;7.82;100.00
21359;BME280;13506;50.852;20.632;2024-03-06T12:11:15;98531.81;;;7.87;100.00
21359;BME280;13506;50.852;20.632;2024-03-06T12:13:45;98524.72;;;7.91;100.00
21359;BME280;13506;50.852;20.632;2024-03-06T12:16:15;98533.97;;;7.97;100.00
21359;BME280;13506;50.852;20.632;2024-03-06T12:18:42;98533.22;;;7.94;100.00
21359;BME280;13506;50.852;20.632;2024-03-06T12:21:11;98529.28;;;7.86;100.00
21359;BME280;13506;50.852;20.632;2024-03-06T12:23:40;98533.41;;;7.90;100.00
21359;BME280;13506;50.852;20.632;2024-03-06T12:26:09;98530.06;;;7.88;100.00
21359;BME280;13506;50.852;20.632;2024-03-06T12:28:39;98525.47;;;7.74;100.00
21359;BME280;13506;50.852;20.632;2024-03-06T12:31:07;98533.81;;;7.81;100.00
21359;BME280;13506;50.852;20.632;2024-03-06T12:33:36;98535.81;;;7.74;100.00
21359;BME280;13506;50.852;20.632;2024-03-06T12:36:05;98533.13;;;7.77;100.00
21359;BME280;13506;50.852;20.632;2024-03-06T12:38:37;98533.94;;;7.78;100.00
21359;BME280;13506;50.852;20.632;2024-03-06T12:41:05;98534.00;;;7.76;100.00
21359;BME280;13506;50.852;20.632;2024-03-06T12:43:34;98528.19;;;7.71;100.00
21359;BME280;13506;50.852;20.632;2024-03-06T12:46:04;98535.91;;;7.52;100.00
21359;BME280;13506;50.852;20.632;2024-03-06T12:48:32;98530.59;;;7.55;100.00
21359;BME280;13506;50.852;20.632;2024-03-06T12:51:00;98539.03;;;7.60;100.00
21359;BME280;13506;50.852;20.632;2024-03-06T12:53:31;98543.44;;;7.58;100.00
21359;BME280;13506;50.852;20.632;2024-03-06T12:55:59;98553.00;;;7.56;100.00
21359;BME280;13506;50.852;20.632;2024-03-06T12:58:27;98554.94;;;7.51;100.00
21359;BME280;13506;50.852;20.632;2024-03-06T13:00:57;98558.16;;;7.36;100.00
21359;BME280;13506;50.852;20.632;2024-03-06T13:03:27;98550.66;;;7.29;100.00